sensor_id;sensor_type;location;lat;lon;timestamp;temperature;humidity
3919;DHT22;1974;48.670;8.994;2023-03-14T00:01:19;8.80;99.90
3919;DHT22;1974;48.670;8.994;2023-03-14T00:03:46;8.80;99.90
3919;DHT22;1974;48.670;8.994;2023-03-14T00:06:14;8.80;99.90
3919;DHT22;1974;48.670;8.994;2023-03-14T00:08:42;8.80;99.90
3919;DHT22;1974;48.670;8.994;2023-03-14T00:11:11;8.80;99.90
3919;DHT22;1974;48.670;8.994;2023-03-14T00:13:39;8.80;99.90
3919;DHT22;1974;48.670;8.994;2023-03-14T00:16:09;8.90;99.90
3919;DHT22;1974;48.670;8.994;2023-03-14T00:18:36;8.90;99.90
3919;DHT22;1974;48.670;8.994;2023-03-14T00:21:04;8.90;99.90
3919;DHT22;1974;48.670;8.994;2023-03-14T00:23:32;8.90;99.90
3919;DHT22;1974;48.670;8.994;2023-03-14T00:26:00;8.80;99.90
3919;DHT22;1974;48.670;8.994;2023-03-14T00:28:27;8.80;99.90
3919;DHT22;1974;48.670;8.994;2023-03-14T00:30:55;8.80;99.90
3919;DHT22;1974;48.670;8.994;2023-03-14T00:33:22;8.80;99.90
3919;DHT22;1974;48.670;8.994;2023-03-14T00:35:53;8.80;99.90
3919;DHT22;1974;48.670;8.994;2023-03-14T00:38:20;8.70;99.90
3919;DHT22;1974;48.670;8.994;2023-03-14T00:40:47;8.70;99.90
3919;DHT22;1974;48.670;8.994;2023-03-14T00:43:13;8.80;99.90
3919;DHT22;1974;48.670;8.994;2023-03-14T00:45:40;8.80;99.90
3919;DHT22;1974;48.670;8.994;2023-03-14T00:48:08;8.80;99.90
3919;DHT22;1974;48.670;8.994;2023-03-14T00:50:35;8.80;99.90
3919;DHT22;1974;48.670;8.994;2023-03-14T00:53:02;8.80;99.90
3919;DHT22;1974;48.670;8.994;2023-03-14T00:55:28;8.80;99.90
3919;DHT22;1974;48.670;8.994;2023-03-14T00:57:55;8.80;99.90
3919;DHT22;1974;48.670;8.994;2023-03-14T01:00:22;8.90;99.90
3919;DHT22;1974;48.670;8.994;2023-03-14T01:02:49;8.80;99.90
3919;DHT22;1974;48.670;8.994;2023-03-14T01:05:17;8.80;99.90
3919;DHT22;1974;48.670;8.994;2023-03-14T01:07:44;8.80;99.90
3919;DHT22;1974;48.670;8.994;2023-03-14T01:10:10;8.80;99.90
3919;DHT22;1974;48.670;8.994;2023-03-14T01:12:37;8.80;99.90
3919;DHT22;1974;48.670;8.994;2023-03-14T01:15:05;8.90;99.90
3919;DHT22;1974;48.670;8.994;2023-03-14T01:17:32;8.90;99.90
3919;DHT22;1974;48.670;8.994;2023-03-14T01:19:59;9.00;99.90
3919;DHT22;1974;48.670;8.994;2023-03-14T01:22:28;8.90;99.90
3919;DHT22;1974;48.670;8.994;2023-03-14T01:24:55;8.90;99.90
3919;DHT22;1974;48.670;8.994;2023-03-14T01:27:22;8.90;99.90
3919;DHT22;1974;48.670;8.994;2023-03-14T01:29:48;8.90;99.90
3919;DHT22;1974;48.670;8.994;2023-03-14T01:32:15;8.90;99.90
3919;DHT22;1974;48.670;8.994;2023-03-14T01:34:42;8.80;99.90
3919;DHT22;1974;48.670;8.994;2023-03-14T01:37:08;8.80;99.90
3919;DHT22;1974;48.670;8.994;2023-03-14T01:39:38;8.90;99.90
3919;DHT22;1974;48.670;8.994;2023-03-14T01:42:05;8.80;99.90
3919;DHT22;1974;48.670;8.994;2023-03-14T01:44:47;8.80;99.90
3919;DHT22;1974;48.670;8.994;2023-03-14T01:47:14;8.70;99.90
3919;DHT22;1974;48.670;8.994;2023-03-14T01:49:41;8.70;99.90
3919;DHT22;1974;48.670;8.994;2023-03-14T01:52:11;8.70;99.90
3919;DHT22;1974;48.670;8.994;2023-03-14T01:54:41;8.60;99.90
3919;DHT22;1974;48.670;8.994;2023-03-14T01:57:12;8.60;99.90
3919;DHT22;1974;48.670;8.994;2023-03-14T01:59:42;8.60;99.90
3919;DHT22;1974;48.670;8.994;2023-03-14T02:02:12;8.60;99.90
3919;DHT22;1974;48.670;8.994;2023-03-14T02:04:40;8.50;99.90
3919;DHT22;1974;48.670;8.994;2023-03-14T02:07:11;8.50;99.90
3919;DHT22;1974;48.670;8.994;2023-03-14T02:09:49;8.60;99.90
3919;DHT22;1974;48.670;8.994;2023-03-14T02:12:27;8.60;99.90
3919;DHT22;1974;48.670;8.994;2023-03-14T02:15:04;8.60;99.90
3919;DHT22;1974;48.670;8.994;2023-03-14T02:17:31;8.60;99.90
3919;DHT22;1974;48.670;8.994;2023-03-14T02:20:08;8.60;99.90
3919;DHT22;1974;48.670;8.994;2023-03-14T02:22:40;8.50;99.90
3919;DHT22;1974;48.670;8.994;2023-03-14T02:25:13;8.60;99.90
3919;DHT22;1974;48.670;8.994;2023-03-14T02:27:42;8.60;99.90
3919;DHT22;1974;48.670;8.994;2023-03-14T02:30:12;8.50;99.90
3919;DHT22;1974;48.670;8.994;2023-03-14T02:32:43;8.50;99.90
3919;DHT22;1974;48.670;8.994;2023-03-14T02:35:12;8.50;99.90
3919;DHT22;1974;48.670;8.994;2023-03-14T02:37:42;8.60;99.90
3919;DHT22;1974;48.670;8.994;2023-03-14T02:40:10;8.60;99.90
3919;DHT22;1974;48.670;8.994;2023-03-14T02:42:37;8.60;99.90
3919;DHT22;1974;48.670;8.994;2023-03-14T02:45:29;8.60;99.90
3919;DHT22;1974;48.670;8.994;2023-03-14T02:48:02;8.50;99.90
3919;DHT22;1974;48.670;8.994;2023-03-14T02:50:33;8.50;99.90
3919;DHT22;1974;48.670;8.994;2023-03-14T02:53:00;8.50;99.90
3919;DHT22;1974;48.670;8.994;2023-03-14T02:55:27;8.40;99.90
3919;DHT22;1974;48.670;8.994;2023-03-14T02:57:54;8.40;99.90
3919;DHT22;1974;48.670;8.994;2023-03-14T03:00:21;8.30;99.90
3919;DHT22;1974;48.670;8.994;2023-03-14T03:02:49;8.30;99.90
3919;DHT22;1974;48.670;8.994;2023-03-14T03:05:16;8.20;99.90
3919;DHT22;1974;48.670;8.994;2023-03-14T03:07:42;8.20;99.90
3919;DHT22;1974;48.670;8.994;2023-03-14T03:10:10;8.20;99.90
3919;DHT22;1974;48.670;8.994;2023-03-14T03:12:37;8.20;99.90
3919;DHT22;1974;48.670;8.994;2023-03-14T03:15:04;8.20;99.90
3919;DHT22;1974;48.670;8.994;2023-03-14T03:17:31;8.10;99.90
3919;DHT22;1974;48.670;8.994;2023-03-14T03:19:59;8.10;99.90
3919;DHT22;1974;48.670;8.994;2023-03-14T03:22:26;8.00;99.90
3919;DHT22;1974;48.670;8.994;2023-03-14T03:24:52;8.00;99.90
3919;DHT22;1974;48.670;8.994;2023-03-14T03:27:19;8.00;99.90
3919;DHT22;1974;48.670;8.994;2023-03-14T03:29:46;8.00;99.90
3919;DHT22;1974;48.670;8.994;2023-03-14T03:32:12;7.90;99.90
3919;DHT22;1974;48.670;8.994;2023-03-14T03:34:39;7.90;99.90
3919;DHT22;1974;48.670;8.994;2023-03-14T03:37:07;7.90;99.90
3919;DHT22;1974;48.670;8.994;2023-03-14T03:39:34;7.80;99.90
3919;DHT22;1974;48.670;8.994;2023-03-14T03:42:01;7.80;99.90
3919;DHT22;1974;48.670;8.994;2023-03-14T03:44:28;7.70;99.90
3919;DHT22;1974;48.670;8.994;2023-03-14T03:46:56;7.60;99.90
3919;DHT22;1974;48.670;8.994;2023-03-14T03:49:33;7.60;99.90
3919;DHT22;1974;48.670;8.994;2023-03-14T03:52:10;7.60;99.90
3919;DHT22;1974;48.670;8.994;2023-03-14T03:54:44;7.60;99.90
3919;DHT22;1974;48.670;8.994;2023-03-14T03:57:17;7.60;99.90
3919;DHT22;1974;48.670;8.994;2023-03-14T03:59:43;7.60;99.90
3919;DHT22;1974;48.670;8.994;2023-03-14T04:02:10;7.50;99.90
3919;DHT22;1974;48.670;8.994;2023-03-14T04:04:37;7.50;99.90
3919;DHT22;1974;48.670;8.994;2023-03-14T04:07:04;7.50;99.90
3919;DHT22;1974;48.670;8.994;2023-03-14T04:09:32;7.50;99.90
3919;DHT22;1974;48.670;8.994;2023-03-14T04:11:59;7.50;99.90
3919;DHT22;1974;48.670;8.994;2023-03-14T04:14:26;7.50;99.90
3919;DHT22;1974;48.670;8.994;2023-03-14T04:16:52;7.50;99.90
3919;DHT22;1974;48.670;8.994;2023-03-14T04:19:20;7.60;99.90
3919;DHT22;1974;48.670;8.994;2023-03-14T04:21:47;7.60;99.90
3919;DHT22;1974;48.670;8.994;2023-03-14T04:24:13;7.50;99.90
3919;DHT22;1974;48.670;8.994;2023-03-14T04:26:41;7.60;99.90
3919;DHT22;1974;48.670;8.994;2023-03-14T04:29:08;7.60;99.90
3919;DHT22;1974;48.670;8.994;2023-03-14T04:31:35;7.60;99.90
3919;DHT22;1974;48.670;8.994;2023-03-14T04:34:01;7.70;99.90
3919;DHT22;1974;48.670;8.994;2023-03-14T04:36:28;7.70;99.90
3919;DHT22;1974;48.670;8.994;2023-03-14T04:38:55;7.70;99.90
3919;DHT22;1974;48.670;8.994;2023-03-14T04:41:21;7.70;99.90
3919;DHT22;1974;48.670;8.994;2023-03-14T04:43:49;7.70;99.90
3919;DHT22;1974;48.670;8.994;2023-03-14T04:46:16;7.70;99.90
3919;DHT22;1974;48.670;8.994;2023-03-14T04:48:43;7.70;99.90
3919;DHT22;1974;48.670;8.994;2023-03-14T04:51:09;7.60;99.90
3919;DHT22;1974;48.670;8.994;2023-03-14T04:53:36;7.60;99.90
3919;DHT22;1974;48.670;8.994;2023-03-14T04:56:03;7.60;99.90
3919;DHT22;1974;48.670;8.994;2023-03-14T04:58:30;7.60;99.90
3919;DHT22;1974;48.670;8.994;2023-03-14T05:01:03;7.60;99.90
3919;DHT22;1974;48.670;8.994;2023-03-14T05:03:30;7.60;99.90
3919;DHT22;1974;48.670;8.994;2023-03-14T05:05:57;7.60;99.90
3919;DHT22;1974;48.670;8.994;2023-03-14T05:08:24;7.60;99.90
3919;DHT22;1974;48.670;8.994;2023-03-14T05:10:54;7.60;99.90
3919;DHT22;1974;48.670;8.994;2023-03-14T05:13:23;7.60;99.90
3919;DHT22;1974;48.670;8.994;2023-03-14T05:15:50;7.50;99.90
3919;DHT22;1974;48.670;8.994;2023-03-14T05:18:18;7.50;99.90
3919;DHT22;1974;48.670;8.994;2023-03-14T05:20:45;7.60;99.90
3919;DHT22;1974;48.670;8.994;2023-03-14T05:23:12;7.60;99.90
3919;DHT22;1974;48.670;8.994;2023-03-14T05:25:38;7.70;99.90
3919;DHT22;1974;48.670;8.994;2023-03-14T05:28:05;7.70;99.90
3919;DHT22;1974;48.670;8.994;2023-03-14T05:30:32;7.80;99.90
3919;DHT22;1974;48.670;8.994;2023-03-14T05:32:59;7.80;99.90
3919;DHT22;1974;48.670;8.994;2023-03-14T05:35:27;7.90;99.90
3919;DHT22;1974;48.670;8.994;2023-03-14T05:37:53;7.90;99.90
3919;DHT22;1974;48.670;8.994;2023-03-14T05:40:20;7.90;99.90
3919;DHT22;1974;48.670;8.994;2023-03-14T05:42:47;8.00;99.90
3919;DHT22;1974;48.670;8.994;2023-03-14T05:45:14;8.00;99.90
3919;DHT22;1974;48.670;8.994;2023-03-14T05:47:40;8.00;99.90
3919;DHT22;1974;48.670;8.994;2023-03-14T05:50:08;7.90;99.90
3919;DHT22;1974;48.670;8.994;2023-03-14T05:52:37;7.90;99.90
3919;DHT22;1974;48.670;8.994;2023-03-14T05:55:04;7.90;99.90
3919;DHT22;1974;48.670;8.994;2023-03-14T05:57:31;7.90;99.90
3919;DHT22;1974;48.670;8.994;2023-03-14T05:59:58;7.90;99.90
3919;DHT22;1974;48.670;8.994;2023-03-14T06:02:24;7.90;99.90
3919;DHT22;1974;48.670;8.994;2023-03-14T06:04:52;7.90;99.90
3919;DHT22;1974;48.670;8.994;2023-03-14T06:07:18;7.90;99.90
3919;DHT22;1974;48.670;8.994;2023-03-14T06:09:46;8.00;99.90
3919;DHT22;1974;48.670;8.994;2023-03-14T06:12:13;8.10;99.90
3919;DHT22;1974;48.670;8.994;2023-03-14T06:14:40;8.10;99.90
3919;DHT22;1974;48.670;8.994;2023-03-14T06:17:07;8.20;99.90
3919;DHT22;1974;48.670;8.994;2023-03-14T06:19:33;8.30;99.90
3919;DHT22;1974;48.670;8.994;2023-03-14T06:22:00;8.30;99.90
3919;DHT22;1974;48.670;8.994;2023-03-14T06:24:27;8.40;99.90
3919;DHT22;1974;48.670;8.994;2023-03-14T06:26:55;8.40;99.90
3919;DHT22;1974;48.670;8.994;2023-03-14T06:29:21;8.50;99.90
3919;DHT22;1974;48.670;8.994;2023-03-14T06:31:48;8.50;99.90
3919;DHT22;1974;48.670;8.994;2023-03-14T06:34:15;8.50;99.90
3919;DHT22;1974;48.670;8.994;2023-03-14T06:36:41;8.60;99.90
3919;DHT22;1974;48.670;8.994;2023-03-14T06:39:08;8.60;99.90
3919;DHT22;1974;48.670;8.994;2023-03-14T06:41:35;8.60;99.90
3919;DHT22;1974;48.670;8.994;2023-03-14T06:44:03;8.60;99.90
3919;DHT22;1974;48.670;8.994;2023-03-14T06:46:30;8.60;99.90
3919;DHT22;1974;48.670;8.994;2023-03-14T06:48:56;8.70;99.90
3919;DHT22;1974;48.670;8.994;2023-03-14T06:51:23;8.70;99.90
3919;DHT22;1974;48.670;8.994;2023-03-14T06:53:50;8.90;99.90
3919;DHT22;1974;48.670;8.994;2023-03-14T06:56:16;9.10;99.90
3919;DHT22;1974;48.670;8.994;2023-03-14T06:58:43;9.20;99.90
3919;DHT22;1974;48.670;8.994;2023-03-14T07:01:20;9.30;99.90
3919;DHT22;1974;48.670;8.994;2023-03-14T07:03:47;9.30;99.90
3919;DHT22;1974;48.670;8.994;2023-03-14T07:06:14;9.20;99.90
3919;DHT22;1974;48.670;8.994;2023-03-14T07:08:40;9.30;99.90
3919;DHT22;1974;48.670;8.994;2023-03-14T07:11:07;9.40;99.90
3919;DHT22;1974;48.670;8.994;2023-03-14T07:13:35;9.50;99.90
3919;DHT22;1974;48.670;8.994;2023-03-14T07:16:02;9.50;99.90
3919;DHT22;1974;48.670;8.994;2023-03-14T07:18:30;9.60;99.90
3919;DHT22;1974;48.670;8.994;2023-03-14T07:20:57;9.70;99.90
3919;DHT22;1974;48.670;8.994;2023-03-14T07:23:23;9.70;99.90
3919;DHT22;1974;48.670;8.994;2023-03-14T07:25:50;9.80;99.90
3919;DHT22;1974;48.670;8.994;2023-03-14T07:28:19;9.80;99.90
3919;DHT22;1974;48.670;8.994;2023-03-14T07:30:46;10.00;99.90
3919;DHT22;1974;48.670;8.994;2023-03-14T07:33:13;10.20;99.90
3919;DHT22;1974;48.670;8.994;2023-03-14T07:35:41;10.30;99.90
3919;DHT22;1974;48.670;8.994;2023-03-14T07:38:08;10.30;99.90
3919;DHT22;1974;48.670;8.994;2023-03-14T07:40:34;10.30;99.90
3919;DHT22;1974;48.670;8.994;2023-03-14T07:43:01;10.40;99.90
3919;DHT22;1974;48.670;8.994;2023-03-14T07:45:28;10.40;99.90
3919;DHT22;1974;48.670;8.994;2023-03-14T07:47:54;10.50;99.90
3919;DHT22;1974;48.670;8.994;2023-03-14T07:50:22;10.60;99.90
3919;DHT22;1974;48.670;8.994;2023-03-14T07:52:51;10.70;99.90
3919;DHT22;1974;48.670;8.994;2023-03-14T07:55:17;10.70;99.90
3919;DHT22;1974;48.670;8.994;2023-03-14T07:57:44;10.80;99.90
3919;DHT22;1974;48.670;8.994;2023-03-14T08:00:12;11.00;99.90
3919;DHT22;1974;48.670;8.994;2023-03-14T08:02:39;11.30;99.90
3919;DHT22;1974;48.670;8.994;2023-03-14T08:05:07;11.40;99.90
3919;DHT22;1974;48.670;8.994;2023-03-14T08:07:33;11.60;99.90
3919;DHT22;1974;48.670;8.994;2023-03-14T08:10:02;11.60;99.90
3919;DHT22;1974;48.670;8.994;2023-03-14T08:12:28;11.80;99.90
3919;DHT22;1974;48.670;8.994;2023-03-14T08:14:55;11.90;99.90
3919;DHT22;1974;48.670;8.994;2023-03-14T08:17:22;11.90;99.90
3919;DHT22;1974;48.670;8.994;2023-03-14T08:19:48;11.90;99.90
3919;DHT22;1974;48.670;8.994;2023-03-14T08:22:15;12.10;99.90
3919;DHT22;1974;48.670;8.994;2023-03-14T08:24:42;12.10;99.90
3919;DHT22;1974;48.670;8.994;2023-03-14T08:27:10;12.30;99.90
3919;DHT22;1974;48.670;8.994;2023-03-14T08:29:37;12.50;99.90
3919;DHT22;1974;48.670;8.994;2023-03-14T08:32:04;12.70;99.90
3919;DHT22;1974;48.670;8.994;2023-03-14T08:34:32;12.70;99.90
3919;DHT22;1974;48.670;8.994;2023-03-14T08:36:59;12.50;99.90
3919;DHT22;1974;48.670;8.994;2023-03-14T08:39:25;12.40;99.90
3919;DHT22;1974;48.670;8.994;2023-03-14T08:41:52;12.30;99.90
3919;DHT22;1974;48.670;8.994;2023-03-14T08:44:20;12.10;99.90
3919;DHT22;1974;48.670;8.994;2023-03-14T08:46:47;11.80;99.90
3919;DHT22;1974;48.670;8.994;2023-03-14T08:49:14;11.80;99.90
3919;DHT22;1974;48.670;8.994;2023-03-14T08:51:40;11.90;99.90
3919;DHT22;1974;48.670;8.994;2023-03-14T08:54:10;12.00;99.90
3919;DHT22;1974;48.670;8.994;2023-03-14T08:56:37;12.10;99.90
3919;DHT22;1974;48.670;8.994;2023-03-14T08:59:04;12.00;99.90
3919;DHT22;1974;48.670;8.994;2023-03-14T09:01:32;12.00;99.90
3919;DHT22;1974;48.670;8.994;2023-03-14T09:03:59;11.80;99.90
3919;DHT22;1974;48.670;8.994;2023-03-14T09:06:25;11.70;99.90
3919;DHT22;1974;48.670;8.994;2023-03-14T09:08:52;11.60;99.90
3919;DHT22;1974;48.670;8.994;2023-03-14T09:11:19;11.40;99.90
3919;DHT22;1974;48.670;8.994;2023-03-14T09:13:46;11.30;99.90
3919;DHT22;1974;48.670;8.994;2023-03-14T09:16:13;11.30;99.90
3919;DHT22;1974;48.670;8.994;2023-03-14T09:18:42;11.30;99.90
3919;DHT22;1974;48.670;8.994;2023-03-14T09:21:08;11.10;99.90
3919;DHT22;1974;48.670;8.994;2023-03-14T09:23:35;11.20;99.90
3919;DHT22;1974;48.670;8.994;2023-03-14T09:26:02;11.20;99.90
3919;DHT22;1974;48.670;8.994;2023-03-14T09:28:29;11.30;99.90
3919;DHT22;1974;48.670;8.994;2023-03-14T09:30:56;11.50;99.90
3919;DHT22;1974;48.670;8.994;2023-03-14T09:33:23;11.50;99.90
3919;DHT22;1974;48.670;8.994;2023-03-14T09:35:51;11.60;99.90
3919;DHT22;1974;48.670;8.994;2023-03-14T09:38:18;11.70;99.90
3919;DHT22;1974;48.670;8.994;2023-03-14T09:40:47;12.00;99.90
3919;DHT22;1974;48.670;8.994;2023-03-14T09:43:14;12.10;99.90
3919;DHT22;1974;48.670;8.994;2023-03-14T09:45:44;12.10;99.90
3919;DHT22;1974;48.670;8.994;2023-03-14T09:48:15;11.90;99.90
3919;DHT22;1974;48.670;8.994;2023-03-14T09:50:45;11.80;99.90
3919;DHT22;1974;48.670;8.994;2023-03-14T09:53:17;11.90;99.90
3919;DHT22;1974;48.670;8.994;2023-03-14T09:55:45;12.10;99.90
3919;DHT22;1974;48.670;8.994;2023-03-14T09:58:16;12.50;99.90
3919;DHT22;1974;48.670;8.994;2023-03-14T10:00:44;13.10;99.90
3919;DHT22;1974;48.670;8.994;2023-03-14T10:03:26;13.60;99.90
3919;DHT22;1974;48.670;8.994;2023-03-14T10:05:56;14.20;99.90
3919;DHT22;1974;48.670;8.994;2023-03-14T10:08:24;14.60;99.90
3919;DHT22;1974;48.670;8.994;2023-03-14T10:10:51;14.90;99.90
3919;DHT22;1974;48.670;8.994;2023-03-14T10:13:20;15.10;99.90
3919;DHT22;1974;48.670;8.994;2023-03-14T10:15:53;15.70;99.90
3919;DHT22;1974;48.670;8.994;2023-03-14T10:18:20;15.60;99.90
3919;DHT22;1974;48.670;8.994;2023-03-14T10:20:52;15.40;99.90
3919;DHT22;1974;48.670;8.994;2023-03-14T10:23:30;15.00;99.90
3919;DHT22;1974;48.670;8.994;2023-03-14T10:26:03;14.50;99.90
3919;DHT22;1974;48.670;8.994;2023-03-14T10:28:31;13.90;99.90
3919;DHT22;1974;48.670;8.994;2023-03-14T10:31:00;13.60;99.90
3919;DHT22;1974;48.670;8.994;2023-03-14T10:33:29;13.60;99.90
3919;DHT22;1974;48.670;8.994;2023-03-14T10:35:59;13.80;99.90
3919;DHT22;1974;48.670;8.994;2023-03-14T10:38:29;13.70;99.90
3919;DHT22;1974;48.670;8.994;2023-03-14T10:41:13;13.70;99.90
3919;DHT22;1974;48.670;8.994;2023-03-14T10:43:46;13.60;99.90
3919;DHT22;1974;48.670;8.994;2023-03-14T10:46:29;13.30;99.90
3919;DHT22;1974;48.670;8.994;2023-03-14T10:49:04;13.20;99.90
3919;DHT22;1974;48.670;8.994;2023-03-14T10:51:31;12.80;99.90
3919;DHT22;1974;48.670;8.994;2023-03-14T10:54:01;12.70;99.90
3919;DHT22;1974;48.670;8.994;2023-03-14T10:56:35;12.50;99.90
3919;DHT22;1974;48.670;8.994;2023-03-14T10:59:03;12.50;99.90
3919;DHT22;1974;48.670;8.994;2023-03-14T11:01:39;12.50;99.90
3919;DHT22;1974;48.670;8.994;2023-03-14T11:04:16;12.40;99.90
3919;DHT22;1974;48.670;8.994;2023-03-14T11:06:50;12.50;99.90
3919;DHT22;1974;48.670;8.994;2023-03-14T11:09:28;12.50;99.90
3919;DHT22;1974;48.670;8.994;2023-03-14T11:12:02;12.30;99.90
3919;DHT22;1974;48.670;8.994;2023-03-14T11:14:34;12.10;99.90
3919;DHT22;1974;48.670;8.994;2023-03-14T11:17:11;11.90;99.90
3919;DHT22;1974;48.670;8.994;2023-03-14T11:19:48;11.80;99.90
3919;DHT22;1974;48.670;8.994;2023-03-14T11:22:21;11.70;99.90
3919;DHT22;1974;48.670;8.994;2023-03-14T11:25:13;11.50;99.90
3919;DHT22;1974;48.670;8.994;2023-03-14T11:27:42;11.50;99.90
3919;DHT22;1974;48.670;8.994;2023-03-14T11:30:18;11.30;99.90
3919;DHT22;1974;48.670;8.994;2023-03-14T11:32:46;11.30;99.90
3919;DHT22;1974;48.670;8.994;2023-03-14T11:35:18;11.10;99.90
3919;DHT22;1974;48.670;8.994;2023-03-14T11:37:49;11.10;99.90
3919;DHT22;1974;48.670;8.994;2023-03-14T11:40:21;11.20;99.90
3919;DHT22;1974;48.670;8.994;2023-03-14T11:42:55;11.20;99.90
3919;DHT22;1974;48.670;8.994;2023-03-14T11:45:26;11.30;99.90
3919;DHT22;1974;48.670;8.994;2023-03-14T11:48:06;11.40;99.90
3919;DHT22;1974;48.670;8.994;2023-03-14T11:50:38;11.40;99.90
3919;DHT22;1974;48.670;8.994;2023-03-14T11:53:11;11.20;99.90
3919;DHT22;1974;48.670;8.994;2023-03-14T11:55:42;11.20;99.90
3919;DHT22;1974;48.670;8.994;2023-03-14T11:58:13;11.00;99.90
3919;DHT22;1974;48.670;8.994;2023-03-14T12:00:43;10.90;99.90
3919;DHT22;1974;48.670;8.994;2023-03-14T12:03:17;10.90;99.90
3919;DHT22;1974;48.670;8.994;2023-03-14T12:05:52;10.70;99.90
3919;DHT22;1974;48.670;8.994;2023-03-14T12:08:43;10.70;99.90
3919;DHT22;1974;48.670;8.994;2023-03-14T12:11:19;10.60;99.90
3919;DHT22;1974;48.670;8.994;2023-03-14T12:13:49;10.70;99.90
3919;DHT22;1974;48.670;8.994;2023-03-14T12:16:29;10.80;99.90
3919;DHT22;1974;48.670;8.994;2023-03-14T12:18:57;11.10;99.90
3919;DHT22;1974;48.670;8.994;2023-03-14T12:21:48;11.30;99.90
3919;DHT22;1974;48.670;8.994;2023-03-14T12:24:18;11.30;99.90
3919;DHT22;1974;48.670;8.994;2023-03-14T12:26:52;11.20;99.90
3919;DHT22;1974;48.670;8.994;2023-03-14T12:29:19;11.30;99.90
3919;DHT22;1974;48.670;8.994;2023-03-14T12:31:46;11.30;99.90
3919;DHT22;1974;48.670;8.994;2023-03-14T12:34:28;11.40;99.90
3919;DHT22;1974;48.670;8.994;2023-03-14T12:37:12;11.40;99.90
3919;DHT22;1974;48.670;8.994;2023-03-14T12:39:47;11.50;99.90
3919;DHT22;1974;48.670;8.994;2023-03-14T12:42:22;11.20;99.90
3919;DHT22;1974;48.670;8.994;2023-03-14T12:45:21;11.20;99.90
3919;DHT22;1974;48.670;8.994;2023-03-14T12:48:00;11.00;99.90
3919;DHT22;1974;48.670;8.994;2023-03-14T12:50:33;10.70;99.90
3919;DHT22;1974;48.670;8.994;2023-03-14T12:53:41;10.70;99.90
3919;DHT22;1974;48.670;8.994;2023-03-14T12:56:25;10.70;99.90
3919;DHT22;1974;48.670;8.994;2023-03-14T12:59:13;10.60;99.90
3919;DHT22;1974;48.670;8.994;2023-03-14T13:01:53;10.50;99.90
3919;DHT22;1974;48.670;8.994;2023-03-14T13:04:27;10.60;99.90
3919;DHT22;1974;48.670;8.994;2023-03-14T13:06:55;10.50;99.90
3919;DHT22;1974;48.670;8.994;2023-03-14T13:09:49;10.40;99.90
3919;DHT22;1974;48.670;8.994;2023-03-14T13:12:17;10.40;99.90
3919;DHT22;1974;48.670;8.994;2023-03-14T13:14:48;10.40;99.90
3919;DHT22;1974;48.670;8.994;2023-03-14T13:17:19;10.40;99.90
3919;DHT22;1974;48.670;8.994;2023-03-14T13:19:50;10.50;99.90
3919;DHT22;1974;48.670;8.994;2023-03-14T13:22:23;10.40;99.90
3919;DHT22;1974;48.670;8.994;2023-03-14T13:24:56;10.50;99.90
3919;DHT22;1974;48.670;8.994;2023-03-14T13:27:24;10.50;99.90
3919;DHT22;1974;48.670;8.994;2023-03-14T13:29:52;10.60;99.90
3919;DHT22;1974;48.670;8.994;2023-03-14T13:32:21;10.60;99.90
3919;DHT22;1974;48.670;8.994;2023-03-14T13:34:48;10.50;99.90
3919;DHT22;1974;48.670;8.994;2023-03-14T13:37:16;10.50;99.90
3919;DHT22;1974;48.670;8.994;2023-03-14T13:39:43;10.50;99.90
3919;DHT22;1974;48.670;8.994;2023-03-14T13:42:15;10.40;99.90
3919;DHT22;1974;48.670;8.994;2023-03-14T13:44:43;10.20;99.90
3919;DHT22;1974;48.670;8.994;2023-03-14T13:47:15;10.10;99.90
3919;DHT22;1974;48.670;8.994;2023-03-14T13:49:43;10.20;99.90
3919;DHT22;1974;48.670;8.994;2023-03-14T13:52:24;10.00;99.90
3919;DHT22;1974;48.670;8.994;2023-03-14T13:54:55;10.20;99.90
3919;DHT22;1974;48.670;8.994;2023-03-14T13:57:22;10.20;99.90
3919;DHT22;1974;48.670;8.994;2023-03-14T14:00:00;10.10;99.90
3919;DHT22;1974;48.670;8.994;2023-03-14T14:02:34;10.10;99.90
3919;DHT22;1974;48.670;8.994;2023-03-14T14:05:03;10.20;99.90
3919;DHT22;1974;48.670;8.994;2023-03-14T14:07:30;10.10;99.90
3919;DHT22;1974;48.670;8.994;2023-03-14T14:09:58;10.10;99.90
3919;DHT22;1974;48.670;8.994;2023-03-14T14:12:28;10.10;99.90
3919;DHT22;1974;48.670;8.994;2023-03-14T14:14:58;10.10;99.90
3919;DHT22;1974;48.670;8.994;2023-03-14T14:17:32;10.10;99.90
3919;DHT22;1974;48.670;8.994;2023-03-14T14:20:01;10.00;99.90
3919;DHT22;1974;48.670;8.994;2023-03-14T14:22:29;10.00;99.90
3919;DHT22;1974;48.670;8.994;2023-03-14T14:24:56;10.00;99.90
3919;DHT22;1974;48.670;8.994;2023-03-14T14:27:28;10.00;99.90
3919;DHT22;1974;48.670;8.994;2023-03-14T14:29:58;10.00;99.90
3919;DHT22;1974;48.670;8.994;2023-03-14T14:32:26;9.90;99.90
3919;DHT22;1974;48.670;8.994;2023-03-14T14:34:58;9.80;99.90
3919;DHT22;1974;48.670;8.994;2023-03-14T14:37:27;9.70;99.90
3919;DHT22;1974;48.670;8.994;2023-03-14T14:39:56;9.70;99.90
3919;DHT22;1974;48.670;8.994;2023-03-14T14:42:26;9.60;99.90
3919;DHT22;1974;48.670;8.994;2023-03-14T14:44:54;9.60;99.90
3919;DHT22;1974;48.670;8.994;2023-03-14T14:47:24;9.60;99.90
3919;DHT22;1974;48.670;8.994;2023-03-14T14:49:52;9.60;99.90
3919;DHT22;1974;48.670;8.994;2023-03-14T14:52:27;9.50;99.90
3919;DHT22;1974;48.670;8.994;2023-03-14T14:54:59;9.60;99.90
3919;DHT22;1974;48.670;8.994;2023-03-14T14:57:31;9.70;99.90
3919;DHT22;1974;48.670;8.994;2023-03-14T15:00:05;9.70;99.90
3919;DHT22;1974;48.670;8.994;2023-03-14T15:02:38;9.60;99.90
3919;DHT22;1974;48.670;8.994;2023-03-14T15:05:12;9.70;99.90
3919;DHT22;1974;48.670;8.994;2023-03-14T15:07:41;9.70;99.90
3919;DHT22;1974;48.670;8.994;2023-03-14T15:10:10;9.80;99.90
3919;DHT22;1974;48.670;8.994;2023-03-14T15:12:37;9.90;99.90
3919;DHT22;1974;48.670;8.994;2023-03-14T15:15:05;9.90;99.90
3919;DHT22;1974;48.670;8.994;2023-03-14T15:17:32;9.80;99.90
3919;DHT22;1974;48.670;8.994;2023-03-14T15:19:58;9.80;99.90
3919;DHT22;1974;48.670;8.994;2023-03-14T15:22:25;9.80;99.90
3919;DHT22;1974;48.670;8.994;2023-03-14T15:24:53;9.60;99.90
3919;DHT22;1974;48.670;8.994;2023-03-14T15:27:20;9.50;99.90
3919;DHT22;1974;48.670;8.994;2023-03-14T15:29:46;9.40;99.90
3919;DHT22;1974;48.670;8.994;2023-03-14T15:32:15;9.30;99.90
3919;DHT22;1974;48.670;8.994;2023-03-14T15:34:43;9.30;99.90
3919;DHT22;1974;48.670;8.994;2023-03-14T15:37:11;9.30;99.90
3919;DHT22;1974;48.670;8.994;2023-03-14T15:39:39;9.40;99.90
3919;DHT22;1974;48.670;8.994;2023-03-14T15:42:07;9.30;99.90
3919;DHT22;1974;48.670;8.994;2023-03-14T15:44:34;9.40;99.90
3919;DHT22;1974;48.670;8.994;2023-03-14T15:47:01;9.30;99.90
3919;DHT22;1974;48.670;8.994;2023-03-14T15:49:28;9.20;99.90
3919;DHT22;1974;48.670;8.994;2023-03-14T15:51:55;9.10;99.90
3919;DHT22;1974;48.670;8.994;2023-03-14T15:54:22;9.20;99.90
3919;DHT22;1974;48.670;8.994;2023-03-14T15:56:48;9.20;99.90
3919;DHT22;1974;48.670;8.994;2023-03-14T15:59:18;9.20;99.90
3919;DHT22;1974;48.670;8.994;2023-03-14T16:01:45;9.10;99.90
3919;DHT22;1974;48.670;8.994;2023-03-14T16:04:13;9.10;99.90
3919;DHT22;1974;48.670;8.994;2023-03-14T16:06:40;9.10;99.90
3919;DHT22;1974;48.670;8.994;2023-03-14T16:09:09;9.10;99.90
3919;DHT22;1974;48.670;8.994;2023-03-14T16:11:35;9.10;99.90
3919;DHT22;1974;48.670;8.994;2023-03-14T16:14:02;9.00;99.90
3919;DHT22;1974;48.670;8.994;2023-03-14T16:16:30;8.90;99.90
3919;DHT22;1974;48.670;8.994;2023-03-14T16:18:57;8.90;99.90
3919;DHT22;1974;48.670;8.994;2023-03-14T16:21:23;8.80;99.90
3919;DHT22;1974;48.670;8.994;2023-03-14T16:23:50;8.80;99.90
3919;DHT22;1974;48.670;8.994;2023-03-14T16:26:18;8.70;99.90